Time;durP1;ratioP1;P1;durP2;ratioP2;P2;SDS_P1;SDS_P2;PMS_P1;PMS_P2;Temp;Humidity;BMP_temperature;BMP_pressure;BME280_temperature;BME280_humidity;BME280_pressure;Samples;Min_cycle;Max_cycle;Signal;HPM_P1;HPM_P2
2022/11/04 00:01:26;;;;;;;28.17;19.88;;;12.00;99.90;;;;;;6113400;23;20021;-85
2022/11/04 00:03:52;;;;;;;27.35;19.95;;;11.90;99.90;;;;;;6137523;23;20040;-85
2022/11/04 00:06:18;;;;;;;25.98;19.80;;;12.00;99.90;;;;;;6138016;23;20021;-86
2022/11/04 00:08:52;;;;;;;21.63;18.60;;;12.00;99.90;;;;;;6112626;23;20031;-85
2022/11/04 00:14:04;;;;;;;22.23;17.23;;;11.90;99.90;;;;;;6137249;23;20319;-85
2022/11/04 00:19:14;;;;;;;21.70;16.30;;;12.00;99.90;;;;;;6138197;23;20162;-85
2022/11/04 00:30:01;;;;;;;19.85;14.43;;;11.90;99.90;;;;;;6136616;23;20024;-85
2022/11/04 00:35:15;;;;;;;16.70;13.70;;;11.90;99.90;;;;;;6136168;23;20017;-84
2022/11/04 00:37:42;;;;;;;16.98;13.60;;;12.00;99.90;;;;;;6113446;23;20342;-85
2022/11/04 00:40:11;;;;;;;12.60;10.73;;;11.80;99.90;;;;;;6111919;23;20020;-85
2022/11/04 00:42:36;;;;;;;11.10;9.23;;;11.90;99.90;;;;;;6111702;23;20017;-85
2022/11/04 00:45:02;;;;;;;9.25;8.27;;;11.70;99.90;;;;;;6111649;23;20141;-85
2022/11/04 00:47:28;;;;;;;8.52;7.53;;;11.70;99.90;;;;;;6136567;23;20420;-86
2022/11/04 00:49:54;;;;;;;7.63;6.55;;;11.60;99.90;;;;;;6137272;23;20029;-85
2022/11/04 00:52:20;;;;;;;5.60;4.95;;;11.60;99.90;;;;;;6131746;23;20082;-85
2022/11/04 00:54:45;;;;;;;6.90;4.25;;;11.40;99.90;;;;;;6131916;23;20020;-85
2022/11/04 00:57:12;;;;;;;6.25;4.35;;;11.40;99.90;;;;;;6107700;23;20045;-85
2022/11/04 00:59:41;;;;;;;5.35;3.00;;;11.40;99.90;;;;;;6131311;23;20085;-85
2022/11/04 01:02:08;;;;;;;6.50;2.60;;;11.20;99.90;;;;;;6108453;23;20104;-86
2022/11/04 01:04:34;;;;;;;4.38;2.40;;;11.30;99.90;;;;;;6108134;23;20017;-85
2022/11/04 01:07:00;;;;;;;3.13;1.80;;;11.10;99.90;;;;;;6107776;23;20108;-86
2022/11/04 01:09:26;;;;;;;4.50;1.85;;;11.20;99.90;;;;;;6108273;23;20403;-85
2022/11/04 01:11:51;;;;;;;6.25;2.08;;;11.20;99.90;;;;;;6133254;23;20052;-85
2022/11/04 01:14:20;;;;;;;2.70;2.28;;;11.20;99.90;;;;;;6108344;23;20051;-86
2022/11/04 01:16:49;;;;;;;6.60;2.38;;;11.20;99.90;;;;;;6109531;23;20347;-85
2022/11/04 01:19:14;;;;;;;4.25;2.00;;;11.10;99.90;;;;;;6108957;23;20081;-85
2022/11/04 01:21:40;;;;;;;2.97;1.60;;;11.10;99.90;;;;;;6109844;23;20065;-86
2022/11/04 01:24:06;;;;;;;2.22;1.60;;;11.10;99.90;;;;;;6107894;22;20022;-85
2022/11/04 01:26:31;;;;;;;3.60;1.50;;;11.00;99.90;;;;;;6132893;23;20013;-85
2022/11/04 01:28:59;;;;;;;3.15;1.52;;;11.10;99.90;;;;;;6108062;23;20121;-85
2022/11/04 01:31:29;;;;;;;3.45;1.48;;;11.10;99.90;;;;;;6108819;23;20100;-85
2022/11/04 01:33:56;;;;;;;2.60;1.63;;;11.10;99.90;;;;;;6134947;23;20047;-85
2022/11/04 01:36:22;;;;;;;4.20;1.65;;;11.00;99.90;;;;;;6134923;23;20036;-85
2022/11/04 01:38:48;;;;;;;3.55;1.77;;;11.00;99.90;;;;;;6110811;23;20017;-86
2022/11/04 01:41:29;;;;;;;3.38;1.67;;;11.10;99.90;;;;;;6108733;23;20033;-85
2022/11/04 01:44:23;;;;;;;4.50;1.57;;;11.10;99.90;;;;;;6132733;23;20049;-85
2022/11/04 01:46:51;;;;;;;2.88;1.50;;;11.10;99.90;;;;;;6089795;23;20562;-85
2022/11/04 01:49:38;;;;;;;3.95;1.50;;;11.10;99.90;;;;;;6133232;23;20071;-86
2022/11/04 01:52:17;;;;;;;5.78;1.35;;;11.10;99.90;;;;;;6112769;23;20481;-85
2022/11/04 01:54:46;;;;;;;4.40;1.50;;;11.10;99.90;;;;;;6115602;23;20025;-85
2022/11/04 01:57:23;;;;;;;4.25;1.60;;;11.20;99.90;;;;;;6114313;23;20347;-85
2022/11/04 01:59:49;;;;;;;4.03;1.27;;;11.20;99.90;;;;;;6114079;23;20059;-85
2022/11/04 02:02:15;;;;;;;2.05;1.23;;;11.00;99.90;;;;;;6136109;23;20040;-85
2022/11/04 02:04:44;;;;;;;5.85;1.30;;;11.00;99.90;;;;;;6114929;23;20006;-85
2022/11/04 02:07:11;;;;;;;4.68;1.10;;;11.00;99.90;;;;;;6137092;23;20802;-85
2022/11/04 02:09:39;;;;;;;3.70;1.10;;;11.00;99.90;;;;;;6113955;23;20463;-86
2022/11/04 02:14:52;;;;;;;2.90;1.15;;;11.00;99.90;;;;;;6138196;23;20326;-85
2022/11/04 02:17:18;;;;;;;2.78;1.10;;;11.00;99.90;;;;;;6111749;23;20013;-85
2022/11/04 02:20:08;;;;;;;2.85;1.13;;;11.00;99.90;;;;;;6114114;23;20481;-85
2022/11/04 02:22:49;;;;;;;2.75;0.75;;;11.10;99.90;;;;;;6114040;23;20457;-85
2022/11/04 02:25:29;;;;;;;5.75;1.10;;;11.00;99.90;;;;;;6138026;23;20028;-85
2022/11/04 02:28:22;;;;;;;5.15;1.20;;;11.00;99.90;;;;;;6114637;23;20442;-86
2022/11/04 02:31:11;;;;;;;7.55;1.17;;;11.00;99.90;;;;;;6111298;23;20025;-85
2022/11/04 02:33:39;;;;;;;4.43;1.10;;;11.00;99.90;;;;;;6115031;23;20013;-85
2022/11/04 02:36:46;;;;;;;5.00;1.00;;;10.90;99.90;;;;;;6114629;23;20013;-85
2022/11/04 02:39:36;;;;;;;5.55;0.90;;;10.90;99.90;;;;;;6113874;23;20421;-85
2022/11/04 02:42:31;;;;;;;4.95;0.90;;;11.00;99.90;;;;;;6113486;23;20053;-85
2022/11/04 02:45:41;;;;;;;6.55;1.00;;;10.90;99.90;;;;;;6112952;23;20017;-86
2022/11/04 02:48:12;;;;;;;8.10;1.10;;;11.00;99.90;;;;;;6116882;23;20052;-86
2022/11/04 02:50:58;;;;;;;4.13;0.90;;;10.90;99.90;;;;;;6114375;23;20838;-86
2022/11/04 02:53:35;;;;;;;4.20;0.90;;;10.90;99.90;;;;;;6114510;22;20017;-85
2022/11/04 02:56:03;;;;;;;2.28;1.00;;;10.90;99.90;;;;;;6137859;23;20058;-85
2022/11/04 02:58:36;;;;;;;6.25;1.13;;;10.90;99.90;;;;;;6114908;23;20013;-85
2022/11/04 03:01:05;;;;;;;5.40;1.30;;;11.00;99.90;;;;;;6135770;23;20537;-85
2022/11/04 03:03:42;;;;;;;3.08;1.20;;;10.90;99.90;;;;;;6138207;23;20020;-85
2022/11/04 03:06:11;;;;;;;3.35;1.20;;;11.00;99.90;;;;;;6112813;23;20100;-85
2022/11/04 03:08:45;;;;;;;5.60;1.00;;;11.00;99.90;;;;;;6113322;23;20096;-86
2022/11/04 03:11:14;;;;;;;7.00;1.58;;;10.90;99.90;;;;;;6111673;23;20151;-85
2022/11/04 03:13:52;;;;;;;4.35;1.30;;;11.00;99.90;;;;;;6113493;23;20020;-85
2022/11/04 03:16:45;;;;;;;3.17;1.27;;;10.90;99.90;;;;;;6110374;23;20040;-85
2022/11/04 03:19:39;;;;;;;2.58;1.15;;;11.00;99.90;;;;;;6114033;23;20032;-86
2022/11/04 03:22:20;;;;;;;2.90;1.10;;;11.00;99.90;;;;;;6113480;23;20060;-86
2022/11/04 03:24:47;;;;;;;3.35;0.90;;;10.90;99.90;;;;;;6137704;23;20617;-85
2022/11/04 03:27:34;;;;;;;2.78;0.90;;;11.00;99.90;;;;;;6137082;23;20427;-86
2022/11/04 03:30:11;;;;;;;4.38;1.10;;;10.90;99.90;;;;;;6113917;23;20060;-85
2022/11/04 03:32:39;;;;;;;6.95;1.17;;;11.00;99.90;;;;;;6112181;23;20005;-86
2022/11/04 03:35:06;;;;;;;2.25;0.70;;;11.10;99.90;;;;;;6113491;23;20069;-86
2022/11/04 03:37:32;;;;;;;3.15;0.80;;;11.00;99.90;;;;;;6115920;22;20052;-85
2022/11/04 03:39:58;;;;;;;1.77;0.80;;;11.10;99.90;;;;;;6113237;23;20028;-86
2022/11/04 03:42:26;;;;;;;3.40;1.10;;;11.00;99.90;;;;;;6113496;22;20237;-86
2022/11/04 03:44:56;;;;;;;3.25;0.95;;;11.00;99.90;;;;;;6114156;23;20237;-86
2022/11/04 03:47:25;;;;;;;2.20;1.10;;;10.90;99.90;;;;;;6111007;23;20092;-85
2022/11/04 03:50:08;;;;;;;1.73;1.00;;;10.90;99.90;;;;;;6114041;23;20045;-86
2022/11/04 03:52:35;;;;;;;2.08;0.95;;;11.00;99.90;;;;;;6113819;22;20029;-85
2022/11/04 03:55:01;;;;;;;2.05;0.75;;;10.90;99.90;;;;;;6114330;23;20070;-85
2022/11/04 03:57:58;;;;;;;3.63;0.90;;;10.90;99.90;;;;;;6114388;23;20395;-86
2022/11/04 04:00:28;;;;;;;3.35;1.30;;;10.90;99.90;;;;;;6111027;23;20043;-86
2022/11/04 04:03:17;;;;;;;5.60;1.10;;;10.90;99.90;;;;;;6114017;23;20067;-86
2022/11/04 04:05:51;;;;;;;3.78;1.10;;;10.90;99.90;;;;;;6113625;23;20104;-86
2022/11/04 04:08:43;;;;;;;5.32;1.10;;;11.00;99.90;;;;;;6113503;23;20102;-86
2022/11/04 04:11:36;;;;;;;3.15;1.17;;;10.90;99.90;;;;;;6112247;23;20508;-85
2022/11/04 04:14:37;;;;;;;4.47;1.20;;;10.80;99.90;;;;;;6114456;23;20023;-85
2022/11/04 04:17:25;;;;;;;3.67;1.30;;;10.90;99.90;;;;;;6132825;23;20032;-85
2022/11/04 04:20:04;;;;;;;7.80;1.88;;;10.90;99.90;;;;;;6113224;23;20059;-85
2022/11/04 04:22:40;;;;;;;4.75;1.52;;;10.90;99.90;;;;;;6112517;23;20052;-84
2022/11/04 04:27:59;;;;;;;3.83;1.30;;;10.90;99.90;;;;;;6137349;23;20035;-85
2022/11/04 04:30:25;;;;;;;5.55;1.50;;;10.80;99.90;;;;;;6110412;23;20032;-86
2022/11/04 04:33:01;;;;;;;4.03;1.30;;;10.90;99.90;;;;;;6113430;23;20024;-85
2022/11/04 04:35:43;;;;;;;5.95;1.25;;;10.90;99.90;;;;;;6112146;23;20035;-85
2022/11/04 04:47:18;;;;;;;2.95;0.93;;;10.90;99.90;;;;;;6135395;23;20391;-85
2022/11/04 04:49:59;;;;;;;4.43;1.20;;;10.80;99.90;;;;;;6138774;23;20017;-83
2022/11/04 04:52:28;;;;;;;4.60;1.17;;;10.70;99.90;;;;;;6108114;23;20374;-85
2022/11/04 04:54:54;;;;;;;2.35;0.70;;;10.70;99.90;;;;;;6109467;23;20123;-85
2022/11/04 04:57:20;;;;;;;2.08;0.65;;;10.60;99.90;;;;;;6109033;23;20394;-85
2022/11/04 04:59:46;;;;;;;3.78;0.98;;;10.60;99.90;;;;;;6110421;23;20655;-85
2022/11/04 05:02:12;;;;;;;3.03;0.90;;;10.50;99.90;;;;;;6106639;23;20032;-85
2022/11/04 05:04:37;;;;;;;1.98;0.75;;;10.60;99.90;;;;;;6109038;22;20502;-85
2022/11/04 05:07:03;;;;;;;2.92;0.70;;;10.50;99.90;;;;;;6132961;23;20137;-85
2022/11/04 05:09:28;;;;;;;3.00;0.73;;;10.50;99.90;;;;;;6133676;23;20009;-85
2022/11/04 05:11:57;;;;;;;3.90;0.98;;;10.50;99.90;;;;;;6109129;23;20470;-86
2022/11/04 05:14:22;;;;;;;3.15;0.75;;;10.40;99.90;;;;;;6109952;23;20490;-86
2022/11/04 05:16:48;;;;;;;2.50;0.75;;;10.30;99.90;;;;;;6105386;23;20038;-85
2022/11/04 05:19:14;;;;;;;3.25;0.90;;;10.20;99.90;;;;;;6110031;23;20022;-85
2022/11/04 05:21:39;;;;;;;4.68;1.00;;;10.30;99.90;;;;;;6108869;22;20033;-86
2022/11/04 05:24:05;;;;;;;2.63;0.95;;;10.10;99.90;;;;;;6133406;23;20124;-85
2022/11/04 05:26:31;;;;;;;3.67;0.90;;;10.10;99.90;;;;;;6133631;23;20068;-85
2022/11/04 05:28:56;;;;;;;2.65;0.70;;;10.10;99.90;;;;;;6109245;23;20029;-86
2022/11/04 05:31:26;;;;;;;2.45;1.17;;;10.10;99.90;;;;;;6106161;23;20063;-86
2022/11/04 05:33:52;;;;;;;2.25;0.80;;;10.00;99.90;;;;;;6133993;23;20100;-85
2022/11/04 05:36:18;;;;;;;3.72;1.00;;;10.00;99.90;;;;;;6108391;23;20296;-85
2022/11/04 05:38:49;;;;;;;5.03;0.70;;;10.00;99.90;;;;;;6110448;22;20027;-84
2022/11/04 05:41:24;;;;;;;1.95;0.98;;;10.10;99.90;;;;;;6132732;23;20021;-85
2022/11/04 05:43:54;;;;;;;3.22;0.90;;;10.00;99.90;;;;;;6135317;23;20018;-85
2022/11/04 05:46:21;;;;;;;3.17;1.02;;;10.10;99.90;;;;;;6130734;23;20025;-85
2022/11/04 05:48:46;;;;;;;2.50;0.90;;;10.00;99.90;;;;;;6108778;23;20021;-85
2022/11/04 05:51:14;;;;;;;4.88;1.15;;;10.10;99.90;;;;;;6134175;23;20024;-85
2022/11/04 05:53:41;;;;;;;2.55;1.20;;;10.00;99.90;;;;;;6109496;23;20195;-86
2022/11/04 05:56:07;;;;;;;1.88;0.77;;;10.00;99.90;;;;;;6133057;23;20022;-86
2022/11/04 05:58:33;;;;;;;5.57;1.20;;;10.00;99.90;;;;;;6110547;23;20017;-85
2022/11/04 06:01:11;;;;;;;1.65;0.70;;;10.00;99.90;;;;;;6105670;23;20013;-85
2022/11/04 06:03:37;;;;;;;4.00;0.70;;;9.90;99.90;;;;;;6134017;23;20029;-86
2022/11/04 06:06:05;;;;;;;6.47;0.82;;;10.00;99.90;;;;;;6107755;23;20028;-86
2022/11/04 06:08:31;;;;;;;1.92;0.70;;;10.00;99.90;;;;;;6110485;23;20063;-85
2022/11/04 06:10:57;;;;;;;6.53;0.90;;;9.80;99.90;;;;;;6108446;23;20106;-85
2022/11/04 06:13:22;;;;;;;3.63;0.95;;;9.80;99.90;;;;;;6109659;23;20021;-85
2022/11/04 06:15:48;;;;;;;4.13;1.02;;;9.80;99.90;;;;;;6105799;23;20017;-86
2022/11/04 06:18:13;;;;;;;3.05;0.75;;;9.80;99.90;;;;;;6109572;23;20026;-85
2022/11/04 06:20:39;;;;;;;2.33;1.00;;;9.70;99.90;;;;;;6109520;23;20024;-86
2022/11/04 06:23:05;;;;;;;2.30;1.20;;;9.70;99.90;;;;;;6109296;23;20097;-86
2022/11/04 06:25:33;;;;;;;1.90;1.15;;;9.70;99.90;;;;;;6132677;23;20017;-86
2022/11/04 06:27:59;;;;;;;4.35;0.93;;;9.70;99.90;;;;;;6109394;23;20021;-85
2022/11/04 06:30:24;;;;;;;2.88;1.30;;;9.60;99.90;;;;;;6107282;23;20288;-85
2022/11/04 06:32:50;;;;;;;4.43;1.50;;;9.60;99.90;;;;;;6134284;23;20032;-86
2022/11/04 06:35:16;;;;;;;3.83;1.45;;;9.60;99.90;;;;;;6108469;23;20021;-86
2022/11/04 06:37:41;;;;;;;5.75;1.27;;;9.60;99.90;;;;;;6134264;23;20017;-86
2022/11/04 06:40:07;;;;;;;3.83;1.63;;;9.70;99.90;;;;;;6133049;23;20288;-86
2022/11/04 06:42:33;;;;;;;2.60;1.15;;;9.60;99.90;;;;;;6109074;23;20381;-86
2022/11/04 06:44:59;;;;;;;3.58;1.40;;;9.50;99.90;;;;;;6110011;23;20196;-86
2022/11/04 06:47:24;;;;;;;2.88;1.15;;;9.50;99.90;;;;;;6106111;23;20118;-86
2022/11/04 06:49:50;;;;;;;4.28;1.48;;;9.50;99.90;;;;;;6109809;23;20171;-85
2022/11/04 06:52:15;;;;;;;5.50;1.52;;;9.50;99.90;;;;;;6108552;23;20018;-86
2022/11/04 06:54:41;;;;;;;2.55;1.10;;;9.50;99.90;;;;;;6109658;23;20040;-86
2022/11/04 06:57:10;;;;;;;3.33;1.33;;;9.40;99.90;;;;;;6108076;23;20555;-85
2022/11/04 06:59:36;;;;;;;3.50;1.25;;;9.50;99.90;;;;;;6109424;23;20048;-86
2022/11/04 07:02:04;;;;;;;3.83;1.48;;;9.40;99.90;;;;;;6106433;23;20018;-86
2022/11/04 07:04:30;;;;;;;4.43;1.33;;;9.40;99.90;;;;;;6109100;23;20216;-86
2022/11/04 07:06:55;;;;;;;2.55;1.25;;;9.30;99.90;;;;;;6108741;23;20014;-86
2022/11/04 07:09:21;;;;;;;2.97;1.30;;;9.40;99.90;;;;;;6135211;23;20520;-85
2022/11/04 07:11:46;;;;;;;1.95;1.15;;;9.40;99.90;;;;;;6108486;23;20013;-85
2022/11/04 07:14:13;;;;;;;2.65;1.10;;;9.20;99.90;;;;;;6110334;23;20309;-85
2022/11/04 07:16:39;;;;;;;1.70;1.00;;;9.30;99.90;;;;;;6107034;23;20013;-86
2022/11/04 07:19:05;;;;;;;4.95;1.02;;;9.30;99.90;;;;;;6109336;23;20023;-86
2022/11/04 07:21:33;;;;;;;5.10;1.20;;;9.30;99.90;;;;;;6134064;23;20291;-86
2022/11/04 07:24:00;;;;;;;4.35;0.98;;;9.30;99.90;;;;;;6109864;22;20401;-85
2022/11/04 07:26:26;;;;;;;2.58;1.00;;;9.20;99.90;;;;;;6110571;23;20534;-86
2022/11/04 07:28:52;;;;;;;2.28;1.05;;;9.20;99.90;;;;;;6110456;23;20056;-85
2022/11/04 07:31:18;;;;;;;1.55;1.10;;;9.20;99.90;;;;;;6107062;23;20335;-85
2022/11/04 07:33:48;;;;;;;4.00;1.13;;;9.20;99.90;;;;;;6111586;23;20018;-86
2022/11/04 07:36:15;;;;;;;2.22;1.20;;;9.20;99.90;;;;;;6110351;23;20195;-85
2022/11/04 07:38:42;;;;;;;1.70;0.93;;;9.20;99.90;;;;;;6110495;23;20096;-86
2022/11/04 07:41:07;;;;;;;1.98;0.95;;;9.30;99.90;;;;;;6109985;23;20025;-86
2022/11/04 07:43:33;;;;;;;2.22;1.00;;;9.30;99.90;;;;;;6111881;23;20017;-86
2022/11/04 07:46:05;;;;;;;2.58;1.10;;;9.40;99.90;;;;;;6107850;23;20092;-85
2022/11/04 07:48:31;;;;;;;2.28;1.10;;;9.50;99.90;;;;;;6111254;23;20065;-86
2022/11/04 07:51:00;;;;;;;2.80;1.13;;;9.50;99.90;;;;;;6110743;23;20091;-86
2022/11/04 07:53:27;;;;;;;4.40;1.17;;;9.50;99.90;;;;;;6115655;22;20450;-86
2022/11/04 07:55:53;;;;;;;1.58;1.15;;;9.60;99.90;;;;;;6139874;23;20458;-85
2022/11/04 07:58:22;;;;;;;2.55;0.98;;;9.60;99.90;;;;;;6116009;23;20096;-85
2022/11/04 08:00:48;;;;;;;5.50;1.30;;;9.70;99.90;;;;;;6113579;23;20368;-86
2022/11/04 08:03:14;;;;;;;5.82;1.25;;;9.70;99.90;;;;;;6116184;23;20028;-85
2022/11/04 08:05:40;;;;;;;2.15;1.10;;;9.80;99.90;;;;;;6141232;23;20017;-86
2022/11/04 08:08:06;;;;;;;1.60;0.82;;;9.80;99.90;;;;;;6115748;23;20013;-86
2022/11/04 08:10:38;;;;;;;2.63;1.20;;;9.90;99.90;;;;;;6138705;23;20088;-85
2022/11/04 08:13:05;;;;;;;3.38;1.20;;;9.90;99.90;;;;;;6140677;23;20354;-85
2022/11/04 08:15:30;;;;;;;2.15;1.17;;;9.90;99.90;;;;;;6136541;23;20016;-85
2022/11/04 08:17:56;;;;;;;2.40;1.25;;;10.00;99.90;;;;;;6115347;23;20028;-86
2022/11/04 08:20:21;;;;;;;4.18;1.33;;;10.10;99.90;;;;;;6115710;23;20021;-85
2022/11/04 08:22:47;;;;;;;1.33;1.05;;;10.00;99.90;;;;;;6141929;23;20016;-86
2022/11/04 08:25:13;;;;;;;2.08;0.93;;;10.20;99.90;;;;;;6115766;23;20021;-86
2022/11/04 08:27:41;;;;;;;2.42;0.95;;;10.10;99.90;;;;;;6116284;23;20017;-85
2022/11/04 08:30:08;;;;;;;3.20;1.50;;;10.20;99.90;;;;;;6114986;23;20468;-85
2022/11/04 08:32:34;;;;;;;2.67;1.30;;;10.30;99.90;;;;;;6114929;23;20040;-86
2022/11/04 08:35:00;;;;;;;4.43;1.25;;;10.30;99.90;;;;;;6115970;23;20013;-85
2022/11/04 08:37:26;;;;;;;2.10;1.25;;;10.40;99.90;;;;;;6114248;23;20010;-86
2022/11/04 08:39:51;;;;;;;3.50;1.15;;;10.30;99.90;;;;;;6115125;23;20387;-85
2022/11/04 08:42:17;;;;;;;3.80;1.02;;;10.40;99.90;;;;;;6115135;23;20418;-85
2022/11/04 08:44:50;;;;;;;2.55;1.10;;;10.50;99.90;;;;;;6115417;23;20088;-86
2022/11/04 08:47:15;;;;;;;3.67;1.10;;;10.50;99.90;;;;;;6111610;23;20143;-85
2022/11/04 08:49:41;;;;;;;1.63;0.82;;;10.60;99.90;;;;;;6115177;23;20047;-86
2022/11/04 08:52:08;;;;;;;4.13;1.38;;;10.50;99.90;;;;;;6113265;23;20025;-86
2022/11/04 08:54:35;;;;;;;1.58;1.00;;;10.60;99.90;;;;;;6140403;23;20017;-85
2022/11/04 08:57:01;;;;;;;3.33;1.23;;;10.70;99.90;;;;;;6138677;23;20013;-86
2022/11/04 08:59:27;;;;;;;1.30;1.10;;;10.70;99.90;;;;;;6115236;23;20020;-85
2022/11/04 09:01:53;;;;;;;3.30;1.20;;;10.70;99.90;;;;;;6111941;23;20017;-85
2022/11/04 09:04:18;;;;;;;4.57;1.05;;;10.70;99.90;;;;;;6114902;23;20017;-86
2022/11/04 09:06:45;;;;;;;2.45;1.02;;;10.70;99.90;;;;;;6114986;23;20021;-86
2022/11/04 09:09:13;;;;;;;2.25;1.00;;;10.80;99.90;;;;;;6114118;23;20354;-85
2022/11/04 09:11:41;;;;;;;3.95;1.17;;;10.80;99.90;;;;;;6113496;23;20013;-85
2022/11/04 09:14:07;;;;;;;5.07;1.20;;;10.80;99.90;;;;;;6116521;23;20024;-86
2022/11/04 09:16:34;;;;;;;3.08;1.13;;;10.90;99.90;;;;;;6111180;23;20017;-85
2022/11/04 09:19:00;;;;;;;3.97;1.20;;;10.90;99.90;;;;;;6114665;23;20366;-85
2022/11/04 09:21:26;;;;;;;3.30;1.10;;;10.90;99.90;;;;;;6114635;23;20024;-86
2022/11/04 09:23:53;;;;;;;3.13;0.98;;;11.00;99.90;;;;;;6115769;23;20016;-86
2022/11/04 09:26:20;;;;;;;4.75;1.25;;;10.90;99.90;;;;;;6138984;23;20402;-85
2022/11/04 09:28:45;;;;;;;2.70;0.82;;;11.00;99.90;;;;;;6140182;23;20056;-85
2022/11/04 09:31:14;;;;;;;4.57;1.10;;;11.00;99.90;;;;;;6112134;23;20010;-85
2022/11/04 09:33:40;;;;;;;7.13;1.45;;;11.10;99.90;;;;;;6115193;23;20078;-86
2022/11/04 09:36:07;;;;;;;4.80;1.27;;;11.20;99.90;;;;;;6115339;23;20477;-85
2022/11/04 09:38:33;;;;;;;1.98;1.00;;;11.30;99.90;;;;;;6116658;23;20078;-85
2022/11/04 09:41:00;;;;;;;3.10;1.35;;;11.30;99.90;;;;;;6114008;23;20013;-86
2022/11/04 09:43:50;;;;;;;3.65;1.33;;;11.30;99.90;;;;;;6140310;23;20017;-85
2022/11/04 09:46:17;;;;;;;1.40;1.00;;;11.40;99.90;;;;;;6112506;23;20056;-85
2022/11/04 09:48:52;;;;;;;3.03;1.33;;;11.50;99.90;;;;;;6114768;23;20379;-85
2022/11/04 09:51:21;;;;;;;2.75;1.17;;;11.40;99.90;;;;;;6113823;23;20016;-85
2022/11/04 09:53:57;;;;;;;2.72;1.35;;;11.50;99.90;;;;;;6115121;22;20088;-86
2022/11/04 09:56:36;;;;;;;3.67;1.30;;;11.60;99.90;;;;;;6114319;23;20032;-85
2022/11/04 09:59:03;;;;;;;2.83;1.40;;;11.60;99.90;;;;;;6115521;23;20066;-85
2022/11/04 10:02:00;;;;;;;3.55;1.20;;;11.70;99.90;;;;;;6136278;23;20417;-85
2022/11/04 10:05:07;;;;;;;4.20;1.27;;;11.70;99.90;;;;;;6114688;23;20069;-85
2022/11/04 10:07:59;;;;;;;5.72;1.30;;;11.80;99.90;;;;;;6138399;23;20044;-85
2022/11/04 10:10:57;;;;;;;3.80;1.13;;;11.80;99.90;;;;;;6113426;23;20021;-85
2022/11/04 10:13:31;;;;;;;2.33;1.10;;;11.90;99.90;;;;;;6114737;23;20076;-84
2022/11/04 10:16:05;;;;;;;3.58;1.27;;;11.90;99.90;;;;;;6110162;22;20074;-84
2022/11/04 10:18:49;;;;;;;2.67;1.00;;;12.00;99.90;;;;;;6114166;23;20291;-85
2022/11/04 10:21:36;;;;;;;5.47;1.30;;;11.90;99.90;;;;;;6138790;23;20025;-86
2022/11/04 10:24:16;;;;;;;5.47;1.20;;;12.10;99.90;;;;;;6116066;23;20024;-84
2022/11/04 10:27:08;;;;;;;6.18;1.27;;;12.00;99.90;;;;;;6114098;23;20017;-85
2022/11/04 10:29:42;;;;;;;8.18;1.40;;;12.10;99.90;;;;;;6114416;23;20059;-84
2022/11/04 10:32:51;;;;;;;2.75;1.40;;;12.30;99.90;;;;;;6109785;23;20009;-84
2022/11/04 10:35:37;;;;;;;2.45;1.20;;;12.20;99.90;;;;;;6138749;23;20013;-85
2022/11/04 10:38:16;;;;;;;;;;;12.40;99.90;;;;;;6140999;23;20021;-85
2022/11/04 10:40:47;;;;;;;3.83;1.35;;;12.50;99.90;;;;;;6114576;23;19916;-84
2022/11/04 10:43:17;;;;;;;1.60;0.80;;;12.50;99.90;;;;;;6114143;23;20045;-85
2022/11/04 10:46:11;;;;;;;5.50;1.63;;;12.30;99.90;;;;;;6111811;23;20167;-84
2022/11/04 10:49:25;;;;;;;3.15;1.00;;;12.50;99.90;;;;;;6113423;23;20021;-84
2022/11/04 10:51:52;;;;;;;4.28;1.58;;;12.40;99.90;;;;;;6073490;23;20020;-85
2022/11/04 10:54:23;;;;;;;3.35;1.20;;;12.40;99.90;;;;;;6114731;23;20017;-84
2022/11/04 10:56:54;;;;;;;4.38;1.65;;;12.40;99.90;;;;;;6112313;23;20216;-85
2022/11/04 10:59:30;;;;;;;3.35;1.40;;;12.50;99.90;;;;;;6115324;23;20338;-85
2022/11/04 11:02:01;;;;;;;5.10;1.30;;;12.60;99.90;;;;;;6111639;23;20074;-84
2022/11/04 11:04:29;;;;;;;4.80;1.63;;;12.70;99.90;;;;;;6139128;23;20017;-85
2022/11/04 11:06:57;;;;;;;4.90;1.75;;;12.80;99.90;;;;;;6114315;23;20526;-85
2022/11/04 11:09:28;;;;;;;4.20;1.50;;;13.00;99.90;;;;;;6138434;23;20457;-84
2022/11/04 11:12:17;;;;;;;2.78;1.60;;;13.20;99.90;;;;;;6113402;23;20397;-85
2022/11/04 11:14:42;;;;;;;4.15;1.38;;;13.20;99.90;;;;;;6114056;23;20013;-84
2022/11/04 11:17:32;;;;;;;6.07;1.45;;;13.20;99.90;;;;;;6110197;23;20058;-84
2022/11/04 11:20:03;;;;;;;4.32;1.48;;;13.30;99.90;;;;;;6113439;23;20458;-84
2022/11/04 11:22:43;;;;;;;5.28;1.30;;;13.50;99.90;;;;;;6114692;23;20070;-84
2022/11/04 11:25:24;;;;;;;4.05;1.20;;;13.60;99.90;;;;;;6112959;23;20020;-84
2022/11/04 11:28:01;;;;;;;4.50;1.48;;;13.60;99.90;;;;;;6114562;22;20438;-84
2022/11/04 11:30:31;;;;;;;9.02;1.45;;;13.60;40.10;;;;;;6110856;23;20402;-84
2022/11/04 11:33:03;;;;;;;3.65;1.38;;;13.80;89.20;;;;;;6137694;23;20064;-84
2022/11/04 11:35:33;;;;;;;4.15;1.45;;;14.10;99.90;;;;;;6113527;23;20040;-84
2022/11/04 11:38:02;;;;;;;3.55;1.30;;;13.90;76.50;;;;;;6113740;23;20366;-84
2022/11/04 11:40:33;;;;;;;5.63;1.30;;;14.10;99.90;;;;;;6112820;23;20028;-84
2022/11/04 11:43:00;;;;;;;5.22;1.55;;;13.90;99.90;;;;;;6114019;23;20246;-84
2022/11/04 11:45:27;;;;;;;4.38;1.50;;;13.70;99.90;;;;;;6111624;23;20410;-84
2022/11/04 11:47:56;;;;;;;4.85;1.30;;;13.50;99.90;;;;;;6139011;23;20331;-84
2022/11/04 11:50:30;;;;;;;4.93;1.20;;;13.40;99.90;;;;;;6113203;23;20478;-84
2022/11/04 11:53:15;;;;;;;5.50;1.45;;;13.40;99.90;;;;;;6114040;22;20017;-83
2022/11/04 11:55:52;;;;;;;2.63;0.80;;;13.40;1.00;;;;;;6114416;23;20078;-83
2022/11/04 11:58:35;;;;;;;1.95;1.05;;;13.20;99.90;;;;;;6114291;23;20017;-84
2022/11/04 12:01:17;;;;;;;5.03;1.10;;;12.90;99.90;;;;;;6136560;23;20094;-84
2022/11/04 12:03:48;;;;;;;4.18;1.02;;;12.80;99.90;;;;;;6139218;23;20312;-84
2022/11/04 12:06:31;;;;;;;5.25;0.90;;;12.70;99.90;;;;;;6114634;23;20504;-84
2022/11/04 12:09:11;;;;;;;4.95;1.10;;;12.70;1.00;;;;;;6138298;23;20393;-84
2022/11/04 12:11:44;;;;;;;3.60;1.00;;;12.60;1.00;;;;;;6114975;23;20065;-84
2022/11/04 12:14:35;;;;;;;3.42;0.80;;;12.50;99.90;;;;;;6140033;23;20009;-83
2022/11/04 12:17:17;;;;;;;3.65;0.90;;;12.30;99.90;;;;;;6110966;23;20100;-84
2022/11/04 12:20:06;;;;;;;3.17;1.00;;;12.30;1.00;;;;;;6115275;23;20025;-83
2022/11/04 12:22:44;;;;;;;3.22;1.13;;;12.20;1.00;;;;;;6114338;23;20464;-84
2022/11/04 12:25:16;;;;;;;3.65;1.30;;;12.20;99.90;;;;;;6136701;23;20079;-83
2022/11/04 12:27:51;;;;;;;2.60;0.70;;;12.30;99.90;;;;;;6113665;23;20510;-84
2022/11/04 12:30:20;;;;;;;1.60;0.80;;;12.30;35.00;;;;;;6135079;23;20291;-84
2022/11/04 12:33:05;;;;;;;4.28;0.85;;;12.40;1.00;;;;;;6113001;23;20020;-84
2022/11/04 12:35:45;;;;;;;3.30;0.90;;;12.60;99.90;;;;;;6112972;23;20102;-84
2022/11/04 12:38:38;;;;;;;1.85;0.80;;;12.60;1.00;;;;;;6137830;23;20033;-84
2022/11/04 12:41:24;;;;;;;4.07;0.77;;;12.80;25.40;;;;;;6112211;23;20095;-84
2022/11/04 12:44:15;;;;;;;2.78;0.80;;;12.80;12.70;;;;;;6113416;23;20101;-84
2022/11/04 12:46:54;;;;;;;2.45;0.70;;;12.70;1.00;;;;;;6108673;23;20036;-84
2022/11/04 12:49:29;;;;;;;4.55;0.88;;;12.70;99.90;;;;;;6113325;23;20021;-83
2022/11/04 12:52:06;;;;;;;2.03;0.60;;;12.60;99.90;;;;;;6136150;23;20096;-84
2022/11/04 12:54:57;;;;;;;4.47;0.85;;;12.50;81.70;;;;;;6112795;23;20423;-84
2022/11/04 12:57:41;;;;;;;1.00;0.57;;;12.30;80.90;;;;;;6113104;23;20020;-84
2022/11/04 13:00:27;;;;;;;2.40;0.75;;;12.10;99.90;;;;;;6111725;23;20125;-84
2022/11/04 13:03:03;;;;;;;4.20;0.85;;;12.10;99.90;;;;;;6137181;23;20182;-84
2022/11/04 13:06:00;;;;;;;3.67;0.80;;;12.00;1.00;;;;;;6113120;23;20033;-83
2022/11/04 13:08:49;;;;;;;2.53;0.90;;;12.00;49.20;;;;;;6138105;23;20470;-84
2022/11/04 13:11:25;;;;;;;3.80;0.85;;;12.00;99.90;;;;;;6113233;23;20104;-84
2022/11/04 13:14:18;;;;;;;0.93;0.55;;;12.00;99.90;;;;;;6139525;23;20169;-83
2022/11/04 13:16:47;;;;;;;3.35;1.40;;;12.00;99.90;;;;;;6109920;23;20044;-84
2022/11/04 13:19:27;;;;;;;2.75;1.00;;;12.10;99.90;;;;;;6114457;23;20056;-84
2022/11/04 13:21:55;;;;;;;3.45;1.25;;;12.30;1.00;;;;;;6114741;23;20473;-84
2022/11/04 13:24:31;;;;;;;2.40;0.73;;;12.50;99.90;;;;;;6138886;23;20048;-84
2022/11/04 13:27:02;;;;;;;4.38;1.23;;;12.70;13.80;;;;;;6138303;23;20028;-84
2022/11/04 13:29:31;;;;;;;3.97;0.98;;;12.80;1.00;;;;;;6114888;23;20024;-83
2022/11/04 13:32:16;;;;;;;4.65;1.00;;;12.90;1.00;;;;;;6111757;23;20397;-84
2022/11/04 13:35:09;;;;;;;2.58;0.82;;;13.10;99.90;;;;;;6113526;23;20096;-84
2022/11/04 13:37:43;;;;;;;7.50;0.98;;;13.30;1.00;;;;;;6138900;23;20028;-84
2022/11/04 13:40:56;;;;;;;2.80;1.08;;;13.30;99.90;;;;;;6113656;23;20438;-84
2022/11/04 13:43:36;;;;;;;4.97;1.15;;;13.40;99.90;;;;;;6139578;23;20051;-84
2022/11/04 13:46:23;;;;;;;3.88;0.98;;;13.50;99.90;;;;;;6110608;23;20445;-83
2022/11/04 13:49:01;;;;;;;5.20;1.40;;;13.80;99.90;;;;;;6136638;23;20349;-84